Time;durP1;ratioP1;P1;durP2;ratioP2;P2;SDS_P1;SDS_P2;PMS_P1;PMS_P2;Temp;Humidity;BMP_temperature;BMP_pressure;BME280_temperature;BME280_humidity;BME280_pressure;Samples;Min_cycle;Max_cycle;Signal;HPM_P1;HPM_P2
2021/10/31 00:01:18;;;;;;;10.23;3.55;;;11.90;95.80;;;;;;5037937;28;20034;-77
2021/10/31 00:03:44;;;;;;;4.63;3.40;;;11.90;95.70;;;;;;5031576;28;20393;-77
2021/10/31 00:06:09;;;;;;;6.30;3.83;;;11.80;95.70;;;;;;5013840;28;20041;-77
2021/10/31 00:08:36;;;;;;;5.57;3.83;;;11.90;95.70;;;;;;5030346;28;20052;-77
2021/10/31 00:11:02;;;;;;;8.80;3.78;;;11.80;95.70;;;;;;5032795;28;20026;-77
2021/10/31 00:13:28;;;;;;;6.53;4.10;;;11.80;95.70;;;;;;5035267;28;20025;-77
2021/10/31 00:15:54;;;;;;;5.13;3.10;;;11.80;95.70;;;;;;5059744;27;20390;-77
2021/10/31 00:18:20;;;;;;;9.38;4.20;;;11.80;95.60;;;;;;5031131;28;20036;-77
2021/10/31 00:20:45;;;;;;;7.93;4.32;;;11.80;95.60;;;;;;5031309;28;20044;-77
2021/10/31 00:23:11;;;;;;;10.68;4.30;;;11.70;95.60;;;;;;5013611;28;20037;-77
2021/10/31 00:25:37;;;;;;;10.40;3.88;;;11.70;95.60;;;;;;5031317;28;20034;-77
2021/10/31 00:28:03;;;;;;;6.93;3.28;;;11.70;95.60;;;;;;5037980;28;20068;-77
2021/10/31 00:30:28;;;;;;;8.70;3.35;;;11.70;95.60;;;;;;5030590;28;20068;-77
2021/10/31 00:32:54;;;;;;;12.52;3.80;;;11.70;95.50;;;;;;5013447;28;20026;-77
2021/10/31 00:35:20;;;;;;;7.13;3.50;;;11.70;95.50;;;;;;4997034;28;20033;-77
2021/10/31 00:37:45;;;;;;;7.40;2.95;;;11.60;95.50;;;;;;5030917;28;20059;-77
2021/10/31 00:40:13;;;;;;;5.35;3.20;;;11.60;95.40;;;;;;5028624;28;20029;-77
2021/10/31 00:42:39;;;;;;;5.03;2.63;;;11.60;95.50;;;;;;5013845;28;20042;-77
2021/10/31 00:45:06;;;;;;;8.82;3.47;;;11.60;95.40;;;;;;5013140;28;20026;-77
2021/10/31 00:47:31;;;;;;;5.18;3.22;;;11.60;95.40;;;;;;5012487;28;20043;-77
2021/10/31 00:49:57;;;;;;;8.48;3.28;;;11.60;95.40;;;;;;5012483;28;20046;-77
2021/10/31 00:52:24;;;;;;;9.15;3.60;;;11.60;95.40;;;;;;5012770;28;20517;-77
2021/10/31 00:54:51;;;;;;;6.28;3.28;;;11.60;95.40;;;;;;5012567;28;20087;-77
2021/10/31 00:57:17;;;;;;;6.30;3.20;;;11.60;95.40;;;;;;5040202;28;20029;-77
2021/10/31 00:59:43;;;;;;;6.53;3.55;;;11.60;95.50;;;;;;5037566;27;20025;-77
2021/10/31 01:02:11;;;;;;;6.90;3.55;;;11.50;95.40;;;;;;5012872;28;20394;-77
2021/10/31 01:04:42;;;;;;;9.65;4.03;;;11.50;95.40;;;;;;5011858;28;20029;-77
2021/10/31 01:07:36;;;;;;;8.57;3.63;;;11.50;95.40;;;;;;5012478;28;20059;-78
2021/10/31 01:10:34;;;;;;;6.20;3.75;;;11.50;95.40;;;;;;5012522;28;20464;-77
2021/10/31 01:13:12;;;;;;;6.65;3.38;;;11.50;95.50;;;;;;5062859;27;20114;-77
2021/10/31 01:16:07;;;;;;;7.25;4.30;;;11.50;95.50;;;;;;5015238;28;20054;-77
2021/10/31 01:18:35;;;;;;;8.80;4.53;;;11.50;95.50;;;;;;5027811;28;20044;-77
2021/10/31 01:21:43;;;;;;;8.40;4.13;;;11.40;95.40;;;;;;5018428;28;20116;-77
2021/10/31 01:24:27;;;;;;;9.67;4.47;;;11.40;95.50;;;;;;5027725;28;20037;-77
2021/10/31 01:27:18;;;;;;;5.47;3.25;;;11.40;95.40;;;;;;5049302;28;20278;-77
2021/10/31 01:29:48;;;;;;;7.05;3.70;;;11.40;95.50;;;;;;5028783;28;20034;-77
2021/10/31 01:32:35;;;;;;;7.03;4.55;;;11.20;95.50;;;;;;5012447;28;20032;-77
2021/10/31 01:35:19;;;;;;;10.23;4.03;;;11.30;95.50;;;;;;5029959;28;20025;-77
2021/10/31 01:38:00;;;;;;;10.63;4.35;;;11.20;95.50;;;;;;5033088;28;20021;-77
2021/10/31 01:40:44;;;;;;;6.13;3.60;;;11.20;95.50;;;;;;5028563;28;20489;-77
2021/10/31 01:43:54;;;;;;;8.07;3.90;;;11.20;95.50;;;;;;5025195;28;20040;-77
2021/10/31 01:46:32;;;;;;;8.55;3.80;;;11.20;95.50;;;;;;5027180;28;20032;-77
2021/10/31 01:49:18;;;;;;;5.85;4.00;;;11.10;95.50;;;;;;5026315;28;20045;-77
2021/10/31 01:51:51;;;;;;;7.60;4.20;;;11.10;95.50;;;;;;5027318;28;20509;-77
2021/10/31 01:54:21;;;;;;;6.47;4.18;;;11.10;95.50;;;;;;5023971;28;20026;-77
2021/10/31 01:56:52;;;;;;;10.50;5.00;;;11.10;95.50;;;;;;5027842;28;20026;-77
2021/10/31 01:59:24;;;;;;;8.35;4.53;;;11.00;95.50;;;;;;5026170;28;20038;-77
2021/10/31 02:01:51;;;;;;;13.18;4.85;;;11.00;95.50;;;;;;5035819;27;20069;-77
2021/10/31 02:04:22;;;;;;;7.10;5.35;;;11.00;95.60;;;;;;5025897;28;20018;-77
2021/10/31 02:06:51;;;;;;;10.93;5.28;;;11.00;95.60;;;;;;5026740;28;20032;-77
2021/10/31 02:09:21;;;;;;;10.50;5.68;;;11.00;95.50;;;;;;5027870;28;20025;-77
2021/10/31 02:11:47;;;;;;;10.32;5.35;;;11.00;95.50;;;;;;5025371;28;20114;-77
2021/10/31 02:14:14;;;;;;;11.32;6.00;;;11.00;95.50;;;;;;5036670;28;20500;-77
2021/10/31 02:16:41;;;;;;;8.18;5.65;;;11.00;95.60;;;;;;5025551;28;20790;-77
2021/10/31 02:19:15;;;;;;;9.35;4.82;;;11.00;95.60;;;;;;5008112;28;20017;-77
2021/10/31 02:21:41;;;;;;;7.18;5.00;;;11.00;95.60;;;;;;5028689;28;20033;-77
2021/10/31 02:24:08;;;;;;;13.20;6.18;;;11.00;95.60;;;;;;5009036;28;20142;-77
2021/10/31 02:26:38;;;;;;;11.75;5.60;;;11.00;95.60;;;;;;5029248;28;20047;-77
2021/10/31 02:29:08;;;;;;;9.98;5.90;;;11.00;95.60;;;;;;5011853;28;20025;-77
2021/10/31 02:31:35;;;;;;;8.75;6.47;;;11.00;95.60;;;;;;5036968;28;20032;-77
2021/10/31 02:34:01;;;;;;;9.55;6.95;;;10.90;95.60;;;;;;5001781;28;20021;-77
2021/10/31 02:36:27;;;;;;;14.32;6.20;;;11.00;95.60;;;;;;5046386;28;20033;-77
2021/10/31 02:38:53;;;;;;;10.93;7.13;;;11.00;95.60;;;;;;5035968;28;20029;-77
2021/10/31 02:41:18;;;;;;;14.35;6.25;;;11.00;95.60;;;;;;5037959;28;20021;-77
2021/10/31 02:43:44;;;;;;;11.90;7.22;;;11.00;95.60;;;;;;5036409;28;20385;-77
2021/10/31 02:46:10;;;;;;;10.85;6.50;;;11.00;95.60;;;;;;5033642;28;20112;-77
2021/10/31 02:48:38;;;;;;;12.35;7.28;;;11.00;95.60;;;;;;5034143;28;20485;-77
2021/10/31 02:51:36;;;;;;;9.32;6.88;;;11.00;95.60;;;;;;5046137;27;20026;-77
2021/10/31 02:54:28;;;;;;;11.93;7.00;;;10.90;95.60;;;;;;5028825;28;20124;-77
2021/10/31 02:57:11;;;;;;;12.50;7.05;;;10.90;95.60;;;;;;5038909;27;20037;-77
2021/10/31 02:59:52;;;;;;;14.73;7.72;;;10.90;95.70;;;;;;5031458;28;20028;-77
2021/10/31 03:02:18;;;;;;;14.35;8.27;;;10.90;95.70;;;;;;5031672;28;20104;-77
2021/10/31 03:04:45;;;;;;;13.52;8.48;;;10.90;95.70;;;;;;5032663;28;20025;-77
2021/10/31 03:07:12;;;;;;;15.15;8.77;;;10.90;95.70;;;;;;5042511;28;20033;-77
2021/10/31 03:09:38;;;;;;;15.85;8.18;;;10.90;95.70;;;;;;5040279;28;20025;-77
2021/10/31 03:12:08;;;;;;;13.73;8.00;;;10.90;95.70;;;;;;5020015;28;20029;-77
2021/10/31 03:14:34;;;;;;;13.57;8.35;;;11.00;95.80;;;;;;5032190;28;20477;-77
2021/10/31 03:17:00;;;;;;;12.07;8.68;;;11.00;95.80;;;;;;5090395;27;20751;-77
2021/10/31 03:19:26;;;;;;;13.45;7.28;;;11.00;95.80;;;;;;4998094;28;20030;-77
2021/10/31 03:21:51;;;;;;;14.68;8.43;;;11.00;95.70;;;;;;5018808;28;20115;-77
2021/10/31 03:24:17;;;;;;;17.40;7.47;;;11.00;95.70;;;;;;5014370;28;20045;-77
2021/10/31 03:26:42;;;;;;;14.60;8.75;;;11.00;95.80;;;;;;5014810;28;20508;-77
2021/10/31 03:29:09;;;;;;;13.55;8.10;;;11.00;95.80;;;;;;5014035;28;20045;-77
2021/10/31 03:31:34;;;;;;;16.92;7.68;;;11.00;96.00;;;;;;5037635;28;20070;-77
2021/10/31 03:34:00;;;;;;;9.57;7.57;;;11.00;96.00;;;;;;5032204;28;20604;-77
2021/10/31 03:36:25;;;;;;;10.80;6.95;;;11.00;95.70;;;;;;5014187;28;20036;-77
2021/10/31 03:38:51;;;;;;;10.20;8.18;;;11.00;95.80;;;;;;5014463;28;20029;-77
2021/10/31 03:41:17;;;;;;;11.00;8.95;;;11.00;95.80;;;;;;5013920;28;20030;-77
2021/10/31 03:43:42;;;;;;;12.63;9.05;;;11.00;95.80;;;;;;5014024;28;20064;-77
2021/10/31 03:46:08;;;;;;;12.77;8.00;;;11.00;95.80;;;;;;5015180;28;20061;-77
2021/10/31 03:48:34;;;;;;;10.75;7.80;;;11.00;95.80;;;;;;5015583;28;20034;-77
2021/10/31 03:50:59;;;;;;;10.80;8.02;;;11.10;95.90;;;;;;5042773;28;20040;-77
2021/10/31 03:53:25;;;;;;;11.90;8.68;;;11.10;95.90;;;;;;5022857;28;20025;-77
2021/10/31 03:55:51;;;;;;;13.65;8.57;;;11.10;95.90;;;;;;5014055;28;20038;-78
2021/10/31 03:58:16;;;;;;;13.35;7.68;;;11.10;95.90;;;;;;5014141;28;20029;-77
2021/10/31 04:00:43;;;;;;;10.60;8.50;;;11.10;95.90;;;;;;5014071;28;20485;-77
2021/10/31 04:03:09;;;;;;;9.63;7.10;;;11.10;95.90;;;;;;5015752;28;20454;-77
2021/10/31 04:05:35;;;;;;;11.20;8.43;;;11.10;95.90;;;;;;5013990;28;20059;-77
2021/10/31 04:08:01;;;;;;;9.98;8.15;;;11.20;96.00;;;;;;5013965;28;20835;-77
2021/10/31 04:10:26;;;;;;;10.18;7.80;;;11.10;96.00;;;;;;5032534;28;20069;-77
2021/10/31 04:12:52;;;;;;;14.80;8.45;;;11.20;96.00;;;;;;5013948;28;20048;-77
2021/10/31 04:15:19;;;;;;;10.60;7.72;;;11.20;96.00;;;;;;5031145;28;20065;-77
2021/10/31 04:17:45;;;;;;;10.02;8.27;;;11.20;96.00;;;;;;5013499;28;20037;-78
2021/10/31 04:20:11;;;;;;;12.10;9.13;;;11.20;96.00;;;;;;5031554;28;20030;-77
2021/10/31 04:22:37;;;;;;;10.15;7.47;;;11.20;96.00;;;;;;5035871;28;20033;-77
2021/10/31 04:25:04;;;;;;;11.85;9.02;;;11.20;95.90;;;;;;5030806;28;20026;-77
2021/10/31 04:27:30;;;;;;;12.25;9.05;;;11.20;95.90;;;;;;5000816;28;20363;-77
2021/10/31 04:29:55;;;;;;;12.60;8.95;;;11.20;95.90;;;;;;5034956;28;20040;-77
2021/10/31 04:32:21;;;;;;;16.33;9.57;;;11.20;95.90;;;;;;5013662;28;20034;-77
2021/10/31 04:34:47;;;;;;;14.82;9.45;;;11.20;95.90;;;;;;5033096;28;20029;-77
2021/10/31 04:37:13;;;;;;;13.75;9.82;;;11.20;95.90;;;;;;5031053;28;20110;-77
2021/10/31 04:39:41;;;;;;;13.43;9.05;;;11.20;95.90;;;;;;5041733;28;20025;-77
2021/10/31 04:42:08;;;;;;;12.90;10.27;;;11.20;95.90;;;;;;5004944;28;20034;-77
2021/10/31 04:44:34;;;;;;;14.23;10.05;;;11.20;95.90;;;;;;5032402;28;20074;-77
2021/10/31 04:47:00;;;;;;;12.48;9.55;;;11.20;95.90;;;;;;5032073;28;20038;-77
2021/10/31 04:49:26;;;;;;;12.30;9.27;;;11.20;95.90;;;;;;5034971;28;20098;-77
2021/10/31 04:51:52;;;;;;;12.95;9.50;;;11.20;95.90;;;;;;5029790;28;20053;-77
2021/10/31 04:54:17;;;;;;;13.15;9.00;;;11.20;95.90;;;;;;5029192;28;20502;-77
2021/10/31 04:56:43;;;;;;;12.75;10.10;;;11.20;95.90;;;;;;5037605;28;20030;-78
2021/10/31 04:59:09;;;;;;;11.48;9.20;;;11.20;96.20;;;;;;5029735;28;20026;-77
2021/10/31 05:01:35;;;;;;;15.23;10.18;;;11.20;95.90;;;;;;5040755;27;20074;-77
2021/10/31 05:04:01;;;;;;;15.88;11.45;;;11.20;95.90;;;;;;5012713;28;20548;-77
2021/10/31 05:06:26;;;;;;;14.77;11.50;;;11.30;95.90;;;;;;5015589;28;20029;-77
2021/10/31 05:08:52;;;;;;;14.07;9.80;;;11.30;95.90;;;;;;5044167;28;20477;-77
2021/10/31 05:11:18;;;;;;;21.27;12.57;;;11.20;95.90;;;;;;5014585;28;20509;-77
2021/10/31 05:13:44;;;;;;;21.00;13.63;;;11.20;95.90;;;;;;5030377;28;20029;-77
2021/10/31 05:16:10;;;;;;;21.63;15.30;;;11.20;95.90;;;;;;5013517;28;20100;-77
2021/10/31 05:18:36;;;;;;;24.42;15.27;;;11.20;95.90;;;;;;4996461;28;20030;-78
2021/10/31 05:21:02;;;;;;;20.98;14.77;;;11.20;95.90;;;;;;5038283;28;20473;-77
2021/10/31 05:23:28;;;;;;;19.00;14.15;;;11.20;95.90;;;;;;5033293;28;20025;-78
2021/10/31 05:25:54;;;;;;;23.70;14.93;;;11.20;95.90;;;;;;5036663;28;20030;-78
2021/10/31 05:28:20;;;;;;;22.40;14.70;;;11.20;95.90;;;;;;5010807;28;20044;-78
2021/10/31 05:30:46;;;;;;;18.25;14.75;;;11.20;95.90;;;;;;5007036;27;20030;-77
2021/10/31 05:33:12;;;;;;;16.05;13.82;;;11.20;95.90;;;;;;5028387;28;20029;-77
2021/10/31 05:35:38;;;;;;;17.20;14.70;;;11.20;95.90;;;;;;5010153;28;20052;-77
2021/10/31 05:38:05;;;;;;;15.85;13.48;;;11.20;95.90;;;;;;5028497;28;20040;-77
2021/10/31 05:40:31;;;;;;;17.73;13.95;;;11.20;96.10;;;;;;5029907;28;20143;-77
2021/10/31 05:42:56;;;;;;;21.35;12.60;;;11.20;95.90;;;;;;5009886;28;20060;-77
2021/10/31 05:45:22;;;;;;;18.95;13.13;;;11.20;95.90;;;;;;4999672;27;20033;-77
2021/10/31 05:47:52;;;;;;;18.70;12.90;;;11.20;95.90;;;;;;5016791;28;20105;-77
2021/10/31 05:50:18;;;;;;;17.58;12.40;;;11.20;95.90;;;;;;5012127;28;20045;-77
2021/10/31 05:52:45;;;;;;;18.38;11.95;;;11.20;95.90;;;;;;5029657;28;20025;-77
2021/10/31 05:55:14;;;;;;;14.70;11.13;;;11.20;95.90;;;;;;5033143;28;20505;-77
2021/10/31 05:57:40;;;;;;;14.10;10.65;;;11.20;95.80;;;;;;5036331;28;20057;-77
2021/10/31 06:00:08;;;;;;;15.90;9.95;;;11.20;95.80;;;;;;5033227;28;20021;-77
2021/10/31 06:02:34;;;;;;;9.27;8.30;;;11.20;95.80;;;;;;5012895;28;20071;-77
2021/10/31 06:05:02;;;;;;;13.35;9.50;;;11.20;95.80;;;;;;5041031;27;20059;-77
2021/10/31 06:07:27;;;;;;;11.15;8.80;;;11.20;96.10;;;;;;5029929;28;20049;-77
2021/10/31 06:09:54;;;;;;;11.25;9.18;;;11.20;95.80;;;;;;5012110;28;20068;-77
2021/10/31 06:12:20;;;;;;;10.80;8.93;;;11.20;95.80;;;;;;5026120;28;20045;-77
2021/10/31 06:14:46;;;;;;;11.45;8.60;;;11.20;95.70;;;;;;5042009;28;20370;-77
2021/10/31 06:17:11;;;;;;;9.70;8.25;;;11.20;95.70;;;;;;5032944;28;20082;-77
2021/10/31 06:19:37;;;;;;;9.95;8.60;;;11.20;95.70;;;;;;5050076;28;20060;-78
2021/10/31 06:22:04;;;;;;;12.80;7.95;;;11.20;95.70;;;;;;5035082;28;20112;-77
2021/10/31 06:24:30;;;;;;;8.90;7.10;;;11.20;95.70;;;;;;5033846;28;20032;-77
2021/10/31 06:26:56;;;;;;;9.77;6.82;;;11.20;95.70;;;;;;5030733;28;20030;-77
2021/10/31 06:29:21;;;;;;;9.35;7.88;;;11.20;95.70;;;;;;5036455;28;20072;-77
2021/10/31 06:31:47;;;;;;;8.52;6.88;;;11.20;95.60;;;;;;5015871;28;20033;-77
2021/10/31 06:34:13;;;;;;;10.32;6.97;;;11.20;95.60;;;;;;5028953;28;20038;-77
2021/10/31 06:36:38;;;;;;;8.27;7.25;;;11.20;95.60;;;;;;5011666;28;20033;-77
2021/10/31 06:39:06;;;;;;;7.82;7.07;;;11.20;95.50;;;;;;5011204;28;20026;-77
2021/10/31 06:41:31;;;;;;;8.70;6.35;;;11.20;95.50;;;;;;5010227;28;20070;-77
2021/10/31 06:43:57;;;;;;;8.38;7.10;;;11.20;95.50;;;;;;5026789;28;20102;-77
2021/10/31 06:46:23;;;;;;;7.68;5.63;;;11.30;95.50;;;;;;5001682;28;20458;-77
2021/10/31 06:48:48;;;;;;;9.88;6.07;;;11.30;95.40;;;;;;5026231;28;20162;-77
2021/10/31 06:51:15;;;;;;;8.68;6.28;;;11.30;95.40;;;;;;5027497;28;20049;-78
2021/10/31 06:53:40;;;;;;;7.40;6.40;;;11.30;95.40;;;;;;5015743;28;20029;-77
2021/10/31 06:56:06;;;;;;;7.82;6.70;;;11.20;95.30;;;;;;5011112;28;20033;-77
2021/10/31 06:58:32;;;;;;;7.38;6.40;;;11.20;95.30;;;;;;5011062;28;20022;-77
2021/10/31 07:00:57;;;;;;;9.32;6.68;;;11.20;95.30;;;;;;5011136;28;20049;-77
2021/10/31 07:03:23;;;;;;;8.38;6.22;;;11.20;95.30;;;;;;5029059;28;20037;-77
2021/10/31 07:05:49;;;;;;;8.07;6.03;;;11.20;95.30;;;;;;4992836;28;20038;-77
2021/10/31 07:08:14;;;;;;;7.38;6.18;;;11.20;95.30;;;;;;5022575;28;20117;-77
2021/10/31 07:10:40;;;;;;;6.53;5.65;;;11.20;95.30;;;;;;5024734;28;20427;-77
2021/10/31 07:13:05;;;;;;;6.03;5.53;;;11.20;95.20;;;;;;5036557;28;20091;-77
2021/10/31 07:15:31;;;;;;;6.55;5.70;;;11.20;95.20;;;;;;5044166;28;20029;-77
2021/10/31 07:17:59;;;;;;;6.60;5.82;;;11.20;95.20;;;;;;5012555;28;20033;-81
2021/10/31 07:20:25;;;;;;;6.50;5.90;;;11.20;95.20;;;;;;5018000;28;20516;-78
2021/10/31 07:22:53;;;;;;;8.10;6.50;;;11.20;95.20;;;;;;5074843;27;20531;-78
2021/10/31 07:25:20;;;;;;;6.30;5.70;;;11.20;95.40;;;;;;5034875;28;20117;-78
2021/10/31 07:27:46;;;;;;;8.60;5.70;;;11.20;95.20;;;;;;5032131;28;20025;-78
2021/10/31 07:30:12;;;;;;;6.95;5.35;;;11.20;95.20;;;;;;5043027;27;20112;-79
2021/10/31 07:32:38;;;;;;;12.43;5.80;;;11.20;95.10;;;;;;5032729;27;20033;-78
2021/10/31 07:35:06;;;;;;;5.70;4.63;;;11.20;95.10;;;;;;4997889;28;20048;-78
2021/10/31 07:37:32;;;;;;;5.53;5.00;;;11.20;95.10;;;;;;5032162;28;20021;-78
2021/10/31 07:39:58;;;;;;;5.43;4.70;;;11.30;95.10;;;;;;5021169;28;20121;-78
2021/10/31 07:42:30;;;;;;;5.78;4.93;;;11.30;95.00;;;;;;5043346;28;20039;-79
2021/10/31 07:44:58;;;;;;;5.65;4.80;;;11.40;95.00;;;;;;5029322;28;20030;-78
2021/10/31 07:47:24;;;;;;;4.65;3.97;;;11.50;94.90;;;;;;5031271;28;20034;-79
2021/10/31 07:49:51;;;;;;;6.20;4.30;;;11.50;94.80;;;;;;5017803;28;20126;-79
2021/10/31 07:52:17;;;;;;;5.28;4.00;;;11.60;94.70;;;;;;5022256;28;20029;-78
2021/10/31 07:54:43;;;;;;;5.60;3.70;;;11.70;94.60;;;;;;5025473;28;20036;-78
2021/10/31 07:57:09;;;;;;;5.18;3.70;;;11.80;94.40;;;;;;5013876;28;20478;-78
2021/10/31 07:59:35;;;;;;;4.22;3.72;;;11.90;94.30;;;;;;5016527;28;20033;-79
2021/10/31 08:02:04;;;;;;;5.25;3.30;;;12.00;94.10;;;;;;5032230;28;20041;-82
2021/10/31 08:04:30;;;;;;;5.50;3.40;;;12.00;94.00;;;;;;4998334;28;20037;-76
2021/10/31 08:06:55;;;;;;;4.43;3.30;;;12.00;93.90;;;;;;5013656;28;20526;-77
2021/10/31 08:09:21;;;;;;;3.70;2.70;;;12.10;93.80;;;;;;5023507;27;20058;-76
2021/10/31 08:11:46;;;;;;;3.42;2.83;;;12.10;93.60;;;;;;5013293;28;20124;-77
2021/10/31 08:14:12;;;;;;;3.53;2.45;;;12.20;93.60;;;;;;5017154;28;20025;-78
2021/10/31 08:16:38;;;;;;;3.55;2.85;;;12.20;93.40;;;;;;5047150;27;20686;-77
2021/10/31 08:19:05;;;;;;;7.63;2.80;;;12.30;93.40;;;;;;5036292;28;20064;-77
2021/10/31 08:21:31;;;;;;;5.45;2.60;;;12.30;93.30;;;;;;5031916;28;20021;-77
2021/10/31 08:23:56;;;;;;;3.65;2.28;;;12.40;93.20;;;;;;4997645;28;20043;-76
2021/10/31 08:26:22;;;;;;;3.72;2.60;;;12.40;92.90;;;;;;5032168;28;20393;-77
2021/10/31 08:28:50;;;;;;;3.13;2.60;;;12.40;92.80;;;;;;5032155;28;20047;-76
2021/10/31 08:31:30;;;;;;;3.88;2.60;;;12.50;92.80;;;;;;5031559;28;20029;-77
2021/10/31 08:34:01;;;;;;;3.58;2.40;;;12.50;92.60;;;;;;5036842;28;20032;-77
2021/10/31 08:36:28;;;;;;;4.85;2.70;;;12.60;92.50;;;;;;5030955;28;20060;-78
2021/10/31 08:38:54;;;;;;;3.47;2.70;;;12.60;92.50;;;;;;5019708;28;20033;-77
2021/10/31 08:41:21;;;;;;;5.20;2.90;;;12.60;92.50;;;;;;5011290;28;20512;-77
2021/10/31 08:43:48;;;;;;;3.60;2.80;;;12.70;92.40;;;;;;5029840;28;20041;-77
2021/10/31 08:46:14;;;;;;;6.38;3.15;;;12.60;92.30;;;;;;5030826;28;20026;-77
2021/10/31 08:48:40;;;;;;;5.05;2.80;;;12.60;92.30;;;;;;5031130;28;20061;-77
2021/10/31 08:51:06;;;;;;;5.90;2.33;;;12.60;92.10;;;;;;5031259;28;20114;-77
2021/10/31 08:53:32;;;;;;;5.10;2.88;;;12.50;92.20;;;;;;5031158;28;20025;-77
2021/10/31 08:55:59;;;;;;;4.22;2.58;;;12.50;92.20;;;;;;5022444;28;20032;-77
2021/10/31 08:58:26;;;;;;;6.43;2.88;;;12.50;92.20;;;;;;5012713;28;20045;-78
2021/10/31 09:00:51;;;;;;;3.30;2.78;;;12.50;92.30;;;;;;5012951;28;20037;-77
2021/10/31 09:03:18;;;;;;;6.60;3.20;;;12.50;92.30;;;;;;5040463;28;20034;-77
2021/10/31 09:05:44;;;;;;;3.90;2.80;;;12.50;92.20;;;;;;5022467;28;20056;-78
2021/10/31 09:08:09;;;;;;;5.38;3.03;;;12.60;92.20;;;;;;5048640;28;20520;-77
2021/10/31 09:10:40;;;;;;;8.40;2.92;;;12.60;92.20;;;;;;5036455;28;20033;-77
2021/10/31 09:13:06;;;;;;;4.72;2.80;;;12.60;92.20;;;;;;5041375;28;20018;-78
2021/10/31 09:15:32;;;;;;;5.20;2.78;;;12.60;92.10;;;;;;5039148;27;20103;-77
2021/10/31 09:17:59;;;;;;;5.80;2.60;;;12.70;92.10;;;;;;5061214;27;20026;-78
2021/10/31 09:20:26;;;;;;;2.45;2.25;;;12.80;92.00;;;;;;5022525;28;20025;-78
2021/10/31 09:23:00;;;;;;;4.10;2.60;;;12.80;91.70;;;;;;5015537;28;20044;-77
2021/10/31 09:25:26;;;;;;;4.15;1.98;;;12.90;91.70;;;;;;5012128;28;20037;-78
2021/10/31 09:27:56;;;;;;;2.45;1.98;;;13.00;91.60;;;;;;5030452;28;20022;-78
2021/10/31 09:30:26;;;;;;;4.90;2.33;;;13.00;91.60;;;;;;5019581;28;20021;-79
2021/10/31 09:32:53;;;;;;;3.88;2.30;;;13.10;91.50;;;;;;5050165;28;20544;-78
2021/10/31 09:35:28;;;;;;;2.75;1.90;;;13.20;91.40;;;;;;5030941;28;20026;-78
2021/10/31 09:37:57;;;;;;;5.75;1.90;;;13.30;91.30;;;;;;5015407;28;20050;-80
2021/10/31 09:40:23;;;;;;;3.70;2.00;;;13.40;91.20;;;;;;5033435;28;20022;-80
2021/10/31 09:42:51;;;;;;;2.22;1.80;;;13.50;90.90;;;;;;5030144;28;20021;-80
2021/10/31 09:45:20;;;;;;;2.50;1.50;;;13.60;90.90;;;;;;5012793;28;20029;-80
2021/10/31 09:47:51;;;;;;;2.75;1.80;;;13.60;90.80;;;;;;5012261;28;20033;-81
2021/10/31 09:50:17;;;;;;;3.15;1.80;;;13.70;91.00;;;;;;5029993;28;20045;-80
2021/10/31 09:52:42;;;;;;;2.00;1.70;;;13.80;90.80;;;;;;5038173;28;20160;-81
2021/10/31 09:55:10;;;;;;;2.75;1.67;;;14.00;90.50;;;;;;5017252;28;20060;-80
2021/10/31 09:57:35;;;;;;;2.13;1.50;;;14.00;90.40;;;;;;5012163;28;20022;-80
2021/10/31 10:00:01;;;;;;;3.15;1.50;;;14.10;90.30;;;;;;5012096;28;20040;-81
2021/10/31 10:05:23;;;;;;;2.28;1.90;;;14.30;89.90;;;;;;5029970;28;20032;-80
2021/10/31 10:08:12;;;;;;;3.40;1.75;;;14.40;89.80;;;;;;5038619;28;20029;-80
2021/10/31 10:10:43;;;;;;;4.05;1.55;;;14.40;89.80;;;;;;5011911;28;20811;-80
2021/10/31 10:13:26;;;;;;;2.17;1.40;;;14.50;89.90;;;;;;5012235;28;20750;-80
2021/10/31 10:16:12;;;;;;;2.95;1.30;;;14.50;89.80;;;;;;5030892;28;20351;-80
2021/10/31 10:18:38;;;;;;;4.10;1.58;;;14.60;89.80;;;;;;4998103;28;20105;-80
2021/10/31 10:21:23;;;;;;;2.20;1.67;;;14.60;89.50;;;;;;5012408;28;20030;-80
2021/10/31 10:23:56;;;;;;;2.28;1.70;;;14.60;89.40;;;;;;5012086;28;20407;-79
2021/10/31 10:26:31;;;;;;;2.55;1.42;;;14.60;89.20;;;;;;5027266;28;20045;-80
2021/10/31 10:29:19;;;;;;;4.03;1.63;;;14.70;89.30;;;;;;5077352;28;20043;-80
2021/10/31 10:31:48;;;;;;;2.67;1.40;;;14.80;89.20;;;;;;5042904;28;20041;-80
2021/10/31 10:34:16;;;;;;;2.22;1.02;;;14.90;88.80;;;;;;5025624;28;20026;-80
2021/10/31 10:36:49;;;;;;;3.13;1.43;;;14.90;88.70;;;;;;5020038;28;20026;-80
2021/10/31 10:39:18;;;;;;;2.72;1.35;;;15.00;88.50;;;;;;5008716;28;20272;-80
2021/10/31 10:41:48;;;;;;;;;;;15.10;88.50;;;;;;5045186;28;20025;-77
2021/10/31 10:44:29;;;;;;;1.10;1.00;;;15.10;87.90;;;;;;5028477;28;19917;-77
2021/10/31 10:47:12;;;;;;;2.55;1.10;;;15.20;87.90;;;;;;5010724;28;20041;-77
2021/10/31 10:49:39;;;;;;;3.00;1.20;;;15.20;87.80;;;;;;5032202;28;20052;-78
2021/10/31 10:52:23;;;;;;;2.53;1.17;;;15.20;87.70;;;;;;5029978;28;20040;-77
2021/10/31 10:55:03;;;;;;;1.13;1.00;;;15.20;87.70;;;;;;5044597;28;20056;-77
2021/10/31 10:57:33;;;;;;;3.03;1.20;;;15.20;87.90;;;;;;5031880;28;20074;-77
2021/10/31 11:00:10;;;;;;;3.00;1.10;;;15.20;88.20;;;;;;5044516;28;20044;-77
2021/10/31 11:02:36;;;;;;;3.03;1.40;;;15.20;88.30;;;;;;5028168;28;20074;-77
2021/10/31 11:05:10;;;;;;;2.80;1.30;;;15.30;88.30;;;;;;5029412;28;20026;-77
2021/10/31 11:07:42;;;;;;;3.83;1.15;;;15.30;88.30;;;;;;5014721;28;20432;-77
2021/10/31 11:10:23;;;;;;;1.90;1.15;;;15.40;88.30;;;;;;5067408;27;20018;-77
2021/10/31 11:12:53;;;;;;;4.35;0.70;;;15.40;88.30;;;;;;5014201;28;20466;-78
2021/10/31 11:15:31;;;;;;;2.63;1.10;;;15.40;88.40;;;;;;5014374;28;20095;-78
2021/10/31 11:17:59;;;;;;;3.28;1.30;;;15.50;88.40;;;;;;5010000;28;20030;-77
2021/10/31 11:20:29;;;;;;;5.18;1.10;;;15.60;88.20;;;;;;5014135;28;20033;-77
2021/10/31 11:22:57;;;;;;;1.63;1.05;;;15.60;88.20;;;;;;5014041;28;20028;-77
2021/10/31 11:25:25;;;;;;;3.03;1.20;;;15.70;88.20;;;;;;5013948;28;20021;-79
2021/10/31 11:27:52;;;;;;;1.00;0.85;;;15.70;88.00;;;;;;5007568;28;20779;-76
2021/10/31 11:30:19;;;;;;;1.88;0.95;;;15.70;88.00;;;;;;5041477;28;20067;-78
2021/10/31 11:32:47;;;;;;;1.45;0.90;;;15.70;87.80;;;;;;5021458;28;20029;-78
2021/10/31 11:35:18;;;;;;;2.28;1.10;;;15.70;88.00;;;;;;5042869;28;20078;-77
2021/10/31 11:37:56;;;;;;;4.93;1.02;;;15.70;88.30;;;;;;5054072;27;20047;-77
2021/10/31 11:40:46;;;;;;;1.67;1.00;;;15.80;88.40;;;;;;5028369;28;20470;-78
2021/10/31 11:43:25;;;;;;;2.60;1.08;;;15.80;88.60;;;;;;5015119;28;20795;-76
2021/10/31 11:45:52;;;;;;;;;;;15.80;88.70;;;;;;5010522;28;20021;-76
2021/10/31 11:48:21;;;;;;;1.83;1.00;;;15.80;88.50;;;;;;5034184;28;19920;-75
2021/10/31 11:50:59;;;;;;;4.47;1.15;;;15.80;88.80;;;;;;5034401;28;20052;-76
2021/10/31 11:53:48;;;;;;;2.17;1.23;;;15.90;89.00;;;;;;5020009;28;20033;-76
2021/10/31 11:56:20;;;;;;;1.65;1.08;;;16.00;88.70;;;;;;5034413;28;20033;-76
2021/10/31 11:58:53;;;;;;;2.08;0.93;;;16.00;88.60;;;;;;5031253;27;20033;-76
2021/10/31 12:01:29;;;;;;;2.10;1.20;;;16.10;88.40;;;;;;5014878;28;20025;-76
2021/10/31 12:03:57;;;;;;;5.93;1.15;;;16.20;88.40;;;;;;5012007;28;20053;-77
2021/10/31 12:06:23;;;;;;;4.22;0.90;;;16.20;88.20;;;;;;5013633;28;20157;-77
2021/10/31 12:08:57;;;;;;;3.38;1.10;;;16.20;88.10;;;;;;5016321;28;20059;-77
2021/10/31 12:11:32;;;;;;;1.45;0.90;;;16.30;88.10;;;;;;5031964;28;20025;-77
2021/10/31 12:14:08;;;;;;;3.58;1.10;;;16.30;88.10;;;;;;5030442;28;20025;-77
2021/10/31 12:17:00;;;;;;;2.38;1.10;;;16.30;87.90;;;;;;5039952;28;20928;-77
2021/10/31 12:19:38;;;;;;;3.20;1.30;;;16.30;88.00;;;;;;5044377;28;20124;-76
2021/10/31 12:22:07;;;;;;;2.25;1.15;;;16.30;88.20;;;;;;4996189;28;20037;-77
2021/10/31 12:24:41;;;;;;;2.30;1.00;;;16.40;88.40;;;;;;5028599;28;20033;-77
2021/10/31 12:27:15;;;;;;;4.95;1.08;;;16.40;88.60;;;;;;5030026;28;20040;-76
2021/10/31 12:29:47;;;;;;;3.15;1.08;;;16.50;88.60;;;;;;5030968;28;20026;-78
2021/10/31 12:32:22;;;;;;;1.75;1.00;;;16.60;88.30;;;;;;5013278;28;20107;-78
2021/10/31 12:34:53;;;;;;;3.25;1.20;;;16.60;88.10;;;;;;5031415;28;20498;-78
2021/10/31 12:37:19;;;;;;;3.55;1.00;;;16.70;88.00;;;;;;5057568;27;20086;-77
2021/10/31 12:39:45;;;;;;;3.63;0.80;;;16.70;87.90;;;;;;5057144;27;20104;-77
2021/10/31 12:42:22;;;;;;;2.75;1.15;;;16.80;87.80;;;;;;5031292;28;20033;-77
2021/10/31 12:44:55;;;;;;;3.08;1.00;;;16.90;87.40;;;;;;5031184;28;20022;-79
2021/10/31 12:47:26;;;;;;;3.25;1.40;;;17.00;86.70;;;;;;5013478;28;20037;-79
2021/10/31 12:50:19;;;;;;;2.47;1.20;;;17.00;86.50;;;;;;5031165;28;20049;-78
2021/10/31 12:52:46;;;;;;;1.90;1.20;;;17.20;86.70;;;;;;5015933;28;20090;-78
2021/10/31 12:55:18;;;;;;;4.38;1.45;;;17.20;86.20;;;;;;5021685;28;20032;-78
2021/10/31 12:57:54;;;;;;;3.78;1.40;;;17.20;85.70;;;;;;5013619;28;20385;-78